Time;durP1;ratioP1;P1;durP2;ratioP2;P2;SDS_P1;SDS_P2;PMS_P1;PMS_P2;Temp;Humidity;BMP_temperature;BMP_pressure;BME280_temperature;BME280_humidity;BME280_pressure;Samples;Min_cycle;Max_cycle;Signal;HPM_P1;HPM_P2
2022/07/30 00:01:47;;;;;;;;;2.00;2.00;;;;;26.56;32.16;101512.09;5099191;27;46185;-72
2022/07/30 00:04:12;;;;;;;;;2.00;2.00;;;;;26.64;32.52;101529.44;5080602;27;45382;-72
2022/07/30 00:06:38;;;;;;;;;2.33;2.33;;;;;26.57;32.45;101520.13;5099323;27;45323;-72
2022/07/30 00:09:04;;;;;;;;;2.00;2.00;;;;;26.61;31.92;101534.38;5099454;27;45510;-72
2022/07/30 00:11:29;;;;;;;;;2.00;2.00;;;;;26.57;32.57;101517.41;5099217;27;46123;-72
2022/07/30 00:13:55;;;;;;;;;3.00;3.00;;;;;26.62;32.54;101528.78;5099458;27;45450;-72
2022/07/30 00:16:20;;;;;;;;;5.33;3.00;;;;;26.55;32.55;101507.63;5099289;27;45481;-72
2022/07/30 00:18:45;;;;;;;;;3.33;2.00;;;;;26.52;32.17;101511.50;5109672;27;45600;-72
2022/07/30 00:21:11;;;;;;;;;3.00;3.00;;;;;26.56;32.63;101521.16;5078605;27;47163;-72
2022/07/30 00:23:36;;;;;;;;;5.33;3.67;;;;;26.53;32.35;101522.31;5083130;27;45497;-72
2022/07/30 00:26:01;;;;;;;;;1.00;1.00;;;;;26.52;33.06;101527.91;5077527;28;45541;-72
2022/07/30 00:28:27;;;;;;;;;4.33;2.33;;;;;26.49;32.93;101528.22;5078734;27;45514;-72
2022/07/30 00:30:52;;;;;;;;;5.67;2.00;;;;;26.47;32.58;101528.38;5078474;27;45514;-72
2022/07/30 00:33:17;;;;;;;;;2.00;2.00;;;;;26.48;32.51;101531.94;5078271;27;48254;-72
2022/07/30 00:35:44;;;;;;;;;3.00;3.00;;;;;26.46;32.80;101525.81;5092705;27;45384;-72
2022/07/30 00:38:10;;;;;;;;;2.00;2.00;;;;;26.42;33.47;101522.50;5078865;27;45753;-72
2022/07/30 00:40:35;;;;;;;;;2.67;2.67;;;;;26.38;33.28;101512.88;5078079;27;45940;-72
2022/07/30 00:43:01;;;;;;;;;2.33;2.00;;;;;26.47;33.45;101527.50;5083406;27;45416;-72
2022/07/30 00:45:26;;;;;;;;;3.67;2.00;;;;;26.45;33.27;101522.19;5098444;27;45488;-72
2022/07/30 00:47:52;;;;;;;;;2.00;2.00;;;;;26.45;33.22;101522.19;5081265;27;45491;-72
2022/07/30 00:50:17;;;;;;;;;2.00;2.00;;;;;26.46;33.61;101517.59;5065183;28;47061;-72
2022/07/30 00:52:43;;;;;;;;;3.33;3.33;;;;;26.37;33.58;101502.09;5078084;27;45506;-72
2022/07/30 00:55:11;;;;;;;;;4.33;3.33;;;;;26.41;33.65;101507.13;5078283;27;45414;-72
2022/07/30 00:57:37;;;;;;;;;3.00;3.00;;;;;26.42;33.99;101513.44;5078250;27;45461;-72
2022/07/30 01:00:05;;;;;;;;;2.67;2.33;;;;;26.41;33.74;101514.44;5085301;27;46377;-72
2022/07/30 01:02:31;;;;;;;;;2.67;2.67;;;;;26.40;33.97;101508.13;5092691;27;45808;-72
2022/07/30 01:04:56;;;;;;;;;3.67;3.67;;;;;26.41;33.80;101511.69;5113018;27;45854;-72
2022/07/30 01:07:22;;;;;;;;;4.00;3.00;;;;;26.40;34.25;101515.47;5109559;27;45473;-72
2022/07/30 01:09:47;;;;;;;;;4.00;4.00;;;;;26.39;34.28;101509.16;5089058;27;45410;-72
2022/07/30 01:12:17;;;;;;;;;4.67;4.67;;;;;26.28;34.29;101499.25;5102879;27;45487;-72
2022/07/30 01:14:43;;;;;;;;;4.00;3.00;;;;;26.34;34.68;101511.47;5078495;27;45457;-72
2022/07/30 01:17:09;;;;;;;;;4.33;4.00;;;;;26.30;34.83;101510.91;5089669;27;45563;-72
2022/07/30 01:19:51;;;;;;;;;3.33;3.33;;;;;26.28;34.33;101515.66;5084694;27;45534;-72
2022/07/30 01:22:29;;;;;;;;;4.33;4.33;;;;;26.25;34.33;101507.78;5094948;27;45507;-72
2022/07/30 01:25:19;;;;;;;;;3.00;3.00;;;;;26.22;34.50;101508.09;5077650;27;45450;-72
2022/07/30 01:27:56;;;;;;;;;5.00;4.00;;;;;26.22;34.98;101502.63;5077775;27;45399;-72
2022/07/30 01:30:25;;;;;;;;;2.00;2.00;;;;;26.22;34.55;101508.09;5077455;27;46228;-72
2022/07/30 01:32:53;;;;;;;;;2.33;2.33;;;;;26.22;34.85;101507.19;5077154;27;45391;-72
2022/07/30 01:35:22;;;;;;;;;3.00;3.00;;;;;26.09;35.11;101483.81;5077624;27;45449;-72
2022/07/30 01:37:50;;;;;;;;;5.00;3.33;;;;;26.21;34.66;101508.22;5102186;27;45498;-72
2022/07/30 01:40:15;;;;;;;;;4.67;3.00;;;;;26.19;34.82;101511.09;5078504;27;47316;-72
2022/07/30 01:42:43;;;;;;;;;3.00;3.00;;;;;26.04;35.19;101497.06;5077302;27;45393;-72
2022/07/30 01:45:11;;;;;;;;;4.00;4.00;;;;;26.10;35.29;101518.31;5082304;27;45561;-72
2022/07/30 01:47:39;;;;;;;;;3.00;3.00;;;;;26.03;35.56;101499.94;5077319;27;45444;-72
2022/07/30 01:50:12;;;;;;;;;3.67;3.67;;;;;26.03;34.91;101513.59;5079215;27;45495;-72
2022/07/30 01:52:40;;;;;;;;;4.50;4.50;;;;;25.99;35.23;101504.84;5088460;27;45462;-72
2022/07/30 01:55:08;;;;;;;;;3.33;3.33;;;;;25.96;35.51;101507.88;5077112;27;45556;-72
2022/07/30 01:57:36;;;;;;;;;4.67;4.67;;;;;25.93;35.89;101507.31;5059194;27;45970;-72
2022/07/30 02:00:06;;;;;;;;;3.00;3.00;;;;;25.89;35.47;101502.16;5077460;27;46372;-72
2022/07/30 02:02:34;;;;;;;;;5.00;3.00;;;;;25.88;35.43;101505.88;5076135;27;45522;-72
2022/07/30 02:05:00;;;;;;;;;4.00;4.00;;;;;25.86;35.80;101502.44;5090425;27;45732;-72
2022/07/30 02:07:40;;;;;;;;;2.67;2.33;;;;;25.77;35.63;101494.25;5078278;27;45453;-72
2022/07/30 02:10:27;;;;;;;;;4.00;4.00;;;;;25.75;36.05;101497.13;5076799;27;46054;-72
2022/07/30 02:12:55;;;;;;;;;4.67;2.33;;;;;25.74;35.59;101506.34;5104029;27;45642;-72
2022/07/30 02:15:38;;;;;;;;;2.00;2.00;;;;;25.67;35.71;101503.31;5076788;28;46420;-72
2022/07/30 02:18:13;;;;;;;;;5.33;4.00;;;;;25.64;35.75;101503.63;5066518;27;45467;-72
2022/07/30 02:20:44;;;;;;;;;4.67;4.00;;;;;25.62;35.65;101504.78;5081550;27;47124;-72
2022/07/30 02:23:11;;;;;;;;;5.00;5.00;;;;;25.48;36.21;101495.19;5084353;27;45446;-72
2022/07/30 02:25:43;;;;;;;;;3.00;3.00;;;;;25.55;36.29;101509.09;5078535;27;45426;-75
2022/07/30 02:28:11;;;;;;;;;6.00;5.00;;;;;25.53;35.92;101501.06;5077372;28;45429;-72
2022/07/30 02:30:43;;;;;;;;;3.00;3.00;;;;;25.47;35.93;101494.31;5076475;27;45407;-72
2022/07/30 02:33:11;;;;;;;;;7.33;3.00;;;;;25.49;36.58;101489.56;5090626;27;45492;-72
2022/07/30 02:35:39;;;;;;;;;3.67;3.67;;;;;25.45;35.87;101477.22;5076612;27;45474;-72
2022/07/30 02:38:06;;;;;;;;;4.00;4.00;;;;;25.54;35.81;101504.63;5091175;27;45431;-72
2022/07/30 02:40:32;;;;;;;;;2.33;2.33;;;;;25.49;36.51;101496.88;5076250;27;46445;-72
2022/07/30 02:42:59;;;;;;;;;3.00;2.67;;;;;25.39;36.24;101485.13;5072283;27;45941;-72
2022/07/30 02:45:25;;;;;;;;;4.67;3.33;;;;;25.44;36.17;101496.47;5078372;27;45490;-72
2022/07/30 02:47:55;;;;;;;;;5.67;4.67;;;;;25.46;36.68;101489.00;5058373;27;45451;-72
2022/07/30 02:50:23;;;;;;;;;3.00;3.00;;;;;25.47;36.78;101493.44;5076265;28;45489;-72
2022/07/30 02:52:52;;;;;;;;;3.00;3.00;;;;;25.48;36.00;101487.00;5076424;27;45434;-72
2022/07/30 02:55:17;;;;;;;;;4.00;4.00;;;;;25.46;36.05;101491.72;5090451;27;45454;-72
2022/07/30 02:57:44;;;;;;;;;3.00;3.00;;;;;25.47;35.56;101483.41;5076434;28;45528;-72
2022/07/30 03:00:11;;;;;;;;;2.00;2.00;;;;;25.39;35.83;101479.69;5092043;27;45529;-72
2022/07/30 03:02:38;;;;;;;;;2.00;2.00;;;;;25.45;35.51;101499.06;5086205;27;45538;-72
2022/07/30 03:05:07;;;;;;;;;5.00;4.00;;;;;25.44;35.72;101504.66;5090429;27;45790;-72
2022/07/30 03:07:34;;;;;;;;;4.00;4.00;;;;;25.38;36.14;101503.38;5085466;27;45398;-72
2022/07/30 03:10:01;;;;;;;;;5.00;4.00;;;;;25.33;36.31;101500.19;5095183;27;45463;-72
2022/07/30 03:12:30;;;;;;;;;6.00;4.67;;;;;25.30;36.24;101505.09;5102642;27;45534;-72
2022/07/30 03:14:56;;;;;;;;;2.67;2.67;;;;;25.28;35.83;101505.25;5085990;27;45697;-78
2022/07/30 03:17:24;;;;;;;;;4.33;3.00;;;;;25.21;36.21;101493.19;5095294;27;45666;-78
2022/07/30 03:19:53;;;;;;;;;2.00;2.00;;;;;25.21;36.43;101493.19;5075894;27;46125;-78
2022/07/30 03:22:21;;;;;;;;;4.00;4.00;;;;;25.17;36.26;101492.59;5075511;27;45452;-78
2022/07/30 03:24:48;;;;;;;;;3.67;3.33;;;;;25.06;36.43;101485.41;5076130;27;45486;-78
2022/07/30 03:27:15;;;;;;;;;3.00;3.00;;;;;25.09;36.67;101500.63;5076074;27;45477;-78
2022/07/30 03:29:42;;;;;;;;;3.00;3.00;;;;;25.08;36.04;101495.31;5075481;27;47436;-78
2022/07/30 03:32:09;;;;;;;;;2.00;2.00;;;;;25.08;36.27;101498.06;5075687;27;45414;-78
2022/07/30 03:34:35;;;;;;;;;5.00;5.00;;;;;24.96;36.24;101481.81;5090062;27;45558;-78
2022/07/30 03:37:05;;;;;;;;;4.00;2.00;;;;;24.98;36.89;101493.47;5076074;27;45458;-78
2022/07/30 03:39:36;;;;;;;;;3.00;2.00;;;;;24.97;37.04;101496.31;5077339;27;45454;-78
2022/07/30 03:42:03;;;;;;;;;4.00;3.00;;;;;24.97;36.71;101497.16;5095789;27;45388;-78
2022/07/30 03:44:29;;;;;;;;;3.00;3.00;;;;;24.82;36.99;101476.78;5082678;27;45389;-78
2022/07/30 03:46:56;;;;;;;;;2.33;2.33;;;;;24.89;36.58;101505.22;5082907;27;45551;-78
2022/07/30 03:49:23;;;;;;;;;1.00;1.00;;;;;24.85;36.87;101501.91;5082759;27;45435;-78
2022/07/30 03:51:49;;;;;;;;;3.33;3.00;;;;;24.85;36.85;101503.78;5057174;28;45534;-78
2022/07/30 03:54:15;;;;;;;;;4.00;3.00;;;;;24.81;37.47;101505.03;5075565;27;45676;-78
2022/07/30 03:56:41;;;;;;;;;2.67;2.67;;;;;24.77;36.96;101501.75;5075374;27;45469;-78
2022/07/30 03:59:06;;;;;;;;;3.00;3.00;;;;;24.75;36.95;101500.19;5075371;28;46225;-78
2022/07/30 04:01:32;;;;;;;;;4.00;4.00;;;;;24.61;37.02;101485.94;5088958;27;45530;-78
2022/07/30 04:04:08;;;;;;;;;3.00;3.00;;;;;24.58;37.04;101491.69;5075471;28;45463;-78
2022/07/30 04:06:38;;;;;;;;;2.00;2.00;;;;;24.60;37.21;101492.38;5057438;27;45519;-78
2022/07/30 04:09:08;;;;;;;;;1.00;1.00;;;;;24.64;37.14;101501.16;5074968;27;45457;-78
2022/07/30 04:11:34;;;;;;;;;4.00;4.00;;;;;24.64;37.21;101506.59;5074807;27;45537;-78
2022/07/30 04:14:00;;;;;;;;;6.67;3.33;;;;;24.35;37.64;101471.94;5083370;27;45498;-72
2022/07/30 04:16:43;;;;;;;;;3.33;3.33;;;;;24.56;37.93;101515.50;5075764;27;45523;-72
2022/07/30 04:19:14;;;;;;;;;3.00;3.00;;;;;24.54;37.16;101512.03;5074899;27;46101;-72
2022/07/30 04:21:41;;;;;;;;;5.00;3.00;;;;;24.50;37.08;101507.84;5074944;27;45548;-72
2022/07/30 04:24:09;;;;;;;;;3.67;3.67;;;;;24.53;37.58;101515.75;5075093;27;45470;-72
2022/07/30 04:26:36;;;;;;;;;3.00;3.00;;;;;24.50;37.31;101513.31;5078696;27;45439;-72
2022/07/30 04:29:05;;;;;;;;;4.00;4.00;;;;;24.49;37.21;101519.78;5078417;27;46313;-72
2022/07/30 04:31:34;;;;;;;;;4.67;3.00;;;;;24.42;37.04;101513.97;5078437;27;45549;-72
2022/07/30 04:34:00;;;;;;;;;4.67;3.00;;;;;24.49;37.17;101529.78;5078678;27;45459;-72
2022/07/30 04:36:26;;;;;;;;;2.00;2.00;;;;;24.49;37.23;101527.94;5078637;27;45427;-72
2022/07/30 04:38:51;;;;;;;;;3.33;3.33;;;;;24.47;37.60;101523.59;5078333;27;45927;-72
2022/07/30 04:41:17;;;;;;;;;3.00;3.00;;;;;24.45;37.63;101518.28;5077759;27;45363;-72
2022/07/30 04:43:42;;;;;;;;;3.00;3.00;;;;;24.30;37.74;101493.25;5060211;28;45528;-72
2022/07/30 04:46:07;;;;;;;;;5.00;5.00;;;;;24.43;37.49;101525.72;5080925;27;45681;-72
2022/07/30 04:48:33;;;;;;;;;3.00;3.00;;;;;24.41;37.57;101516.81;5076819;28;48208;-72
2022/07/30 04:51:01;;;;;;;;;2.33;2.33;;;;;24.40;37.80;101518.69;5078178;27;45468;-72
2022/07/30 04:53:28;;;;;;;;;0.33;0.33;;;;;24.41;37.22;101523.13;5078457;27;45525;-72
2022/07/30 04:55:54;;;;;;;;;3.00;3.00;;;;;24.28;37.51;101495.28;5078273;27;45438;-72
2022/07/30 04:58:21;;;;;;;;;3.00;3.00;;;;;24.46;37.78;101522.72;5077762;27;47314;-72
2022/07/30 05:00:48;;;;;;;;;5.00;2.33;;;;;24.41;37.22;101503.19;5068958;27;45494;-72
2022/07/30 05:03:16;;;;;;;;;2.00;2.00;;;;;24.46;37.02;101497.34;5083015;27;45454;-72
2022/07/30 05:05:42;;;;;;;;;3.00;3.00;;;;;24.57;36.74;101521.78;5078237;27;45418;-72
2022/07/30 05:08:08;;;;;;;;;3.33;3.33;;;;;24.55;36.85;101526.53;5077864;27;45370;-72
2022/07/30 05:10:33;;;;;;;;;3.00;3.00;;;;;24.46;37.16;101513.69;5078794;27;45506;-72
2022/07/30 05:12:58;;;;;;;;;2.00;2.00;;;;;24.51;37.47;101533.25;5072214;28;45392;-72
2022/07/30 05:15:24;;;;;;;;;2.67;2.67;;;;;24.50;37.55;101528.81;5092493;27;45391;-78
2022/07/30 05:17:50;;;;;;;;;3.00;3.00;;;;;24.47;37.37;101540.84;5092138;27;45412;-78
2022/07/30 05:20:15;;;;;;;;;4.00;4.00;;;;;24.47;37.49;101543.56;5077684;27;45448;-78
2022/07/30 05:22:41;;;;;;;;;4.00;4.00;;;;;24.48;37.01;101534.38;5081290;27;45482;-78
2022/07/30 05:25:07;;;;;;;;;3.00;3.00;;;;;24.52;36.99;101537.72;5088669;27;45421;-78
2022/07/30 05:27:32;;;;;;;;;3.67;3.67;;;;;24.55;36.94;101549.19;5077355;27;45496;-78
2022/07/30 05:29:57;;;;;;;;;3.00;3.00;;;;;24.55;37.53;101548.31;5077676;27;45502;-78
2022/07/30 05:32:23;;;;;;;;;2.00;2.00;;;;;24.55;37.94;101549.19;5077705;27;45588;-78
2022/07/30 05:34:48;;;;;;;;;4.33;3.00;;;;;24.59;37.24;101547.06;5059727;28;45562;-78
2022/07/30 05:37:13;;;;;;;;;1.00;1.00;;;;;24.58;37.27;101545.31;5076181;27;45437;-78
2022/07/30 05:39:39;;;;;;;;;3.00;3.00;;;;;24.54;37.94;101527.53;5080258;27;45430;-78
2022/07/30 05:42:04;;;;;;;;;2.67;2.67;;;;;24.63;37.78;101543.03;5070516;28;45569;-78
2022/07/30 05:44:29;;;;;;;;;4.33;4.00;;;;;24.64;38.48;101551.06;5079584;27;45543;-78
2022/07/30 05:46:55;;;;;;;;;4.00;4.00;;;;;24.69;39.33;101552.53;5077066;27;46072;-78
2022/07/30 05:49:20;;;;;;;;;5.00;5.00;;;;;24.69;39.41;101547.06;5077623;27;45847;-79
2022/07/30 05:51:46;;;;;;;;;6.00;6.00;;;;;24.66;39.17;101545.50;5076781;27;47096;-78
2022/07/30 05:54:11;;;;;;;;;7.33;4.67;;;;;24.66;39.28;101553.66;5077491;28;45497;-78
2022/07/30 05:56:37;;;;;;;;;5.00;5.00;;;;;24.55;39.92;101526.53;5091109;27;47281;-78
2022/07/30 05:59:03;;;;;;;;;7.00;7.00;;;;;24.66;39.77;101547.38;5076943;27;45522;-79
2022/07/30 06:01:28;;;;;;;;;6.67;6.00;;;;;24.65;40.13;101549.19;5070849;27;45497;-78
2022/07/30 06:03:53;;;;;;;;;7.33;5.00;;;;;24.67;39.75;101566.28;5084323;27;45475;-78
2022/07/30 06:06:19;;;;;;;;;6.33;6.33;;;;;24.70;40.00;101552.41;5084504;27;46097;-78
2022/07/30 06:08:44;;;;;;;;;7.67;6.33;;;;;24.78;39.77;101554.41;5081271;27;45454;-78
2022/07/30 06:11:09;;;;;;;;;7.00;7.00;;;;;24.85;39.53;101561.88;5083878;27;45482;-78
2022/07/30 06:13:35;;;;;;;;;8.33;4.67;;;;;24.78;39.77;101548.97;5092640;27;45431;-78
2022/07/30 06:16:00;;;;;;;;;6.00;6.00;;;;;24.74;39.20;101537.47;5081345;27;45763;-78
2022/07/30 06:18:26;;;;;;;;;5.00;5.00;;;;;24.78;39.06;101524.44;5086700;27;45407;-78
2022/07/30 06:20:53;;;;;;;;;5.00;4.67;;;;;25.01;38.79;101558.63;5058585;27;45801;-78
2022/07/30 06:23:19;;;;;;;;;7.00;6.00;;;;;25.04;38.82;101555.59;5092327;27;46096;-77
2022/07/30 06:25:49;;;;;;;;;6.00;4.00;;;;;25.06;38.80;101569.97;5093917;27;46198;-78
2022/07/30 06:28:15;;;;;;;;;4.00;4.00;;;;;25.09;38.91;101568.81;5094137;27;45564;-78
2022/07/30 06:30:40;;;;;;;;;6.33;5.33;;;;;25.13;38.89;101577.59;5090912;27;45513;-77
2022/07/30 06:33:06;;;;;;;;;18.67;15.67;;;;;25.13;39.15;101572.13;5093772;27;45414;-75
2022/07/30 06:35:33;;;;;;;;;10.00;9.00;;;;;25.03;39.26;101545.72;5093905;27;45517;-78
2022/07/30 06:37:59;;;;;;;;;6.00;6.00;;;;;25.18;38.27;101583.53;5090655;27;45548;-77
2022/07/30 06:40:24;;;;;;;;;5.00;5.00;;;;;25.17;39.09;101593.53;5093225;27;45513;-77
2022/07/30 06:42:49;;;;;;;;;4.00;4.00;;;;;25.21;38.74;101594.13;5092996;27;45477;-77
2022/07/30 06:45:15;;;;;;;;;6.67;5.33;;;;;25.27;38.87;101582.66;5095072;27;46221;-77
2022/07/30 06:47:40;;;;;;;;;8.00;4.00;;;;;25.33;38.48;101584.81;5090294;27;45570;-77
2022/07/30 06:50:06;;;;;;;;;5.67;5.67;;;;;25.38;38.01;101584.38;5092500;27;45533;-77
2022/07/30 06:52:32;;;;;;;;;5.00;5.00;;;;;25.43;37.85;101585.69;5093338;27;45469;-77
2022/07/30 06:54:57;;;;;;;;;6.00;6.00;;;;;25.49;38.40;101586.97;5091801;27;45482;-77
2022/07/30 06:57:23;;;;;;;;;5.00;5.00;;;;;25.46;37.81;101579.09;5095803;27;45409;-77
2022/07/30 06:59:48;;;;;;;;;4.00;4.00;;;;;25.55;38.16;101591.00;5090052;27;45746;-77
2022/07/30 07:02:14;;;;;;;;;5.33;4.67;;;;;25.60;37.91;101588.69;5093247;27;45407;-77
2022/07/30 07:04:39;;;;;;;;;6.33;6.00;;;;;25.61;37.90;101585.81;5090628;27;45548;-77
2022/07/30 07:07:04;;;;;;;;;7.00;6.00;;;;;25.64;37.25;101596.47;5074775;27;45459;-77
2022/07/30 07:09:30;;;;;;;;;4.33;4.33;;;;;25.69;38.26;101602.34;5092666;27;45658;-77
2022/07/30 07:11:55;;;;;;;;;3.67;3.67;;;;;25.77;37.77;101598.03;5087321;27;45506;-77
2022/07/30 07:14:20;;;;;;;;;5.33;5.00;;;;;25.79;37.69;101598.75;5089254;27;50651;-77
2022/07/30 07:16:47;;;;;;;;;4.50;4.50;;;;;25.85;37.36;101609.94;5087754;27;49664;-77
2022/07/30 07:19:13;;;;;;;;;5.67;5.00;;;;;25.88;37.49;101611.56;5082382;27;45441;-77
2022/07/30 07:21:38;;;;;;;;;4.67;4.67;;;;;25.93;37.16;101602.94;5077270;27;45487;-77
2022/07/30 07:24:04;;;;;;;;;4.00;4.00;;;;;25.86;37.03;101584.38;5088683;27;62542;-77
2022/07/30 07:26:30;;;;;;;;;4.00;4.00;;;;;26.00;36.47;101607.66;5089601;27;45457;-77
2022/07/30 07:28:56;;;;;;;;;3.67;3.67;;;;;26.03;36.53;101603.75;5085503;27;45461;-77
2022/07/30 07:31:21;;;;;;;;;4.33;4.33;;;;;26.06;37.02;101608.94;5089028;27;45557;-77
2022/07/30 07:33:47;;;;;;;;;6.33;4.67;;;;;26.08;37.00;101604.19;5087825;27;46424;-75
2022/07/30 07:36:13;;;;;;;;;6.00;6.00;;;;;25.99;36.83;101572.28;5086562;27;45398;-75
2022/07/30 07:38:39;;;;;;;;;4.00;4.00;;;;;26.13;37.39;101588.22;5089293;27;45525;-76
2022/07/30 07:41:04;;;;;;;;;4.00;4.00;;;;;26.20;36.50;101586.63;5089053;27;45395;-78
2022/07/30 07:43:30;;;;;;;;;5.33;5.00;;;;;26.33;36.67;101597.22;5066306;27;45536;-78
2022/07/30 07:45:56;;;;;;;;;4.00;4.00;;;;;26.42;36.92;101596.31;5087183;27;45499;-73
2022/07/30 07:48:21;;;;;;;;;5.33;4.33;;;;;26.40;35.75;101583.81;5069860;27;45626;-77
2022/07/30 07:50:47;;;;;;;;;7.33;6.00;;;;;26.41;36.48;101593.72;5087800;27;45420;-80
2022/07/30 07:53:12;;;;;;;;;5.00;5.00;;;;;26.45;35.41;101601.47;5090524;27;47046;-75
2022/07/30 07:55:39;;;;;;;;;5.00;3.67;;;;;26.47;36.25;101604.91;5090671;27;45498;-77
2022/07/30 07:58:04;;;;;;;;;8.00;6.00;;;;;26.52;35.67;101594.38;5084314;27;45589;-77
2022/07/30 08:00:30;;;;;;;;;6.33;6.00;;;;;26.58;35.63;101600.31;5091400;27;45488;-85
2022/07/30 08:02:56;;;;;;;;;9.00;8.33;;;;;26.64;35.70;101594.22;5088012;27;46118;-83
2022/07/30 08:05:21;;;;;;;;;6.33;6.33;;;;;26.72;35.91;101600.66;5095122;27;45853;-83
2022/07/30 08:07:46;;;;;;;;;6.67;6.67;;;;;26.79;36.21;101595.47;5091617;27;45937;-83
2022/07/30 08:10:13;;;;;;;;;6.00;6.00;;;;;26.86;35.73;101601.19;5072614;27;45545;-82
2022/07/30 08:12:39;;;;;;;;;11.67;11.00;;;;;26.96;36.28;101601.97;5108170;27;46980;-79
2022/07/30 08:15:05;;;;;;;;;4.00;4.00;;;;;27.06;34.77;101600.03;5080199;27;45432;-88
2022/07/30 08:17:30;;;;;;;;;6.00;4.00;;;;;27.05;34.94;101579.16;5095077;27;45459;-90
2022/07/30 08:19:59;;;;;;;;;7.00;5.00;;;;;27.23;35.37;101583.81;5082774;27;45448;-83
2022/07/30 08:22:25;;;;;;;;;9.33;5.67;;;;;27.33;34.79;101590.09;5079612;27;45540;-80
2022/07/30 08:24:51;;;;;;;;;6.67;6.67;;;;;27.41;35.14;101592.91;5094979;27;45471;-87
2022/07/30 08:27:16;;;;;;;;;4.33;4.33;;;;;27.39;34.70;101574.91;5092789;27;45601;-86
2022/07/30 08:29:41;;;;;;;;;5.67;5.67;;;;;27.53;34.52;101597.13;5084766;27;45374;-90
2022/07/30 08:32:07;;;;;;;;;5.00;5.00;;;;;27.60;34.63;101594.59;5080757;27;45983;-90
2022/07/30 08:34:32;;;;;;;;;4.00;4.00;;;;;27.60;34.63;101593.75;5080162;27;45516;-87
2022/07/30 08:36:57;;;;;;;;;5.00;5.00;;;;;27.58;34.52;101588.41;5093692;27;50628;-90
2022/07/30 08:39:23;;;;;;;;;5.00;5.00;;;;;27.67;34.81;101598.44;5090731;27;45517;-89
2022/07/30 08:41:49;;;;;;;;;2.00;2.00;;;;;27.83;34.45;101602.34;5082775;27;46124;-81
2022/07/30 08:44:17;;;;;;;;;6.00;4.33;;;;;27.94;33.70;101607.59;5063019;27;45570;-82
2022/07/30 08:46:44;;;;;;;;;5.00;5.00;;;;;27.86;34.19;101570.03;5080900;27;45454;-83
2022/07/30 08:49:11;;;;;;;;;7.67;4.00;;;;;28.04;34.03;101580.09;5093732;27;45722;-77
2022/07/30 08:51:36;;;;;;;;;7.00;6.00;;;;;28.20;33.70;101589.25;5093845;27;46210;-78
2022/07/30 08:54:03;;;;;;;;;6.33;5.00;;;;;28.98;32.58;101609.38;5081930;27;45480;-80
2022/07/30 08:56:28;;;;;;;;;5.33;5.33;;;;;30.92;30.24;101577.47;5080927;27;45421;-73
2022/07/30 08:58:55;;;;;;;;;5.67;4.33;;;;;31.92;28.51;101588.44;5094812;27;45386;-74
2022/07/30 09:01:21;;;;;;;;;4.00;3.00;;;;;34.00;25.83;101590.81;5095699;27;45421;-84
2022/07/30 09:03:47;;;;;;;;;2.00;2.00;;;;;36.05;23.47;101593.69;5077239;27;45477;-81
2022/07/30 09:06:12;;;;;;;;;3.33;3.33;;;;;37.63;21.74;101586.84;5080425;27;45411;-86
2022/07/30 09:08:37;;;;;;;;;4.00;4.00;;;;;38.92;20.45;101573.97;5080797;27;45414;-87
2022/07/30 09:11:03;;;;;;;;;5.00;5.00;;;;;39.84;19.72;101601.53;5097119;27;46061;-88
2022/07/30 09:13:33;;;;;;;;;4.67;3.33;;;;;40.53;18.69;101597.25;5094942;27;45466;-88
2022/07/30 09:15:58;;;;;;;;;5.33;4.00;;;;;40.69;18.57;101594.56;5088125;27;45506;-70
2022/07/30 09:18:27;;;;;;;;;4.67;4.00;;;;;40.30;18.81;101601.81;5084392;27;45404;-70
2022/07/30 09:20:53;;;;;;;;;4.00;4.00;;;;;39.42;18.97;101609.06;5081682;27;47102;-69
2022/07/30 09:23:18;;;;;;;;;2.33;2.33;;;;;37.34;21.36;101598.38;5084818;27;45514;-70
2022/07/30 09:25:46;;;;;;;;;3.00;3.00;;;;;36.36;22.42;101609.66;5094045;27;45596;-69
2022/07/30 09:28:12;;;;;;;;;3.67;3.67;;;;;36.94;21.45;101598.56;5090774;27;45472;-70
2022/07/30 09:30:49;;;;;;;;;5.00;3.33;;;;;36.71;21.61;101612.16;5084627;27;47016;-70
2022/07/30 09:33:31;;;;;;;;;5.67;4.00;;;;;38.35;20.90;101601.19;5084362;27;45380;-71
2022/07/30 09:35:57;;;;;;;;;5.00;3.33;;;;;39.77;19.41;101597.97;5095730;27;45407;-70
2022/07/30 09:38:22;;;;;;;;;6.00;6.00;;;;;40.65;18.53;101604.53;5072312;27;45512;-70
2022/07/30 09:40:52;;;;;;;;;6.00;5.33;;;;;41.39;17.71;101609.34;5087754;27;46082;-71
2022/07/30 09:43:18;;;;;;;;;4.00;4.00;;;;;41.93;17.29;101615.34;5079939;27;45533;-71
2022/07/30 09:45:51;;;;;;;;;4.00;4.00;;;;;43.42;16.29;101612.56;5078392;27;45771;-71
2022/07/30 09:48:22;;;;;;;;;6.00;6.00;;;;;44.64;15.23;101614.56;5088827;27;45410;-71
2022/07/30 09:50:49;;;;;;;;;5.67;5.67;;;;;45.55;14.57;101625.53;5080316;27;45836;-70
2022/07/30 09:53:15;;;;;;;;;2.33;2.33;;;;;46.25;13.23;101623.78;5083669;27;45341;-70
2022/07/30 09:55:41;;;;;;;;;5.00;4.00;;;;;46.66;13.65;101618.00;5087591;27;45872;-71
2022/07/30 09:58:07;;;;;;;;;6.67;6.67;;;;;47.08;13.08;101619.50;5095356;27;45604;-71
2022/07/30 10:00:34;;;;;;;;;6.00;5.67;;;;;46.94;13.00;101624.94;5092458;27;46408;-72
2022/07/30 10:03:01;;;;;;;;;4.33;4.33;;;;;47.06;13.14;101621.78;5088508;27;45522;-72
2022/07/30 10:05:26;;;;;;;;;4.33;4.33;;;;;47.35;13.14;101627.53;5080585;27;45425;-72
2022/07/30 10:07:59;;;;;;;;;4.00;3.00;;;;;47.81;13.09;101626.31;5077338;27;45540;-71
2022/07/30 10:10:29;;;;;;;;;1.67;1.67;;;;;47.74;12.20;101625.81;5090832;27;46125;-72
2022/07/30 10:13:01;;;;;;;;;3.00;3.00;;;;;46.79;12.80;101621.41;5093999;27;45470;-72
2022/07/30 10:15:32;;;;;;;;;3.33;3.33;;;;;46.51;12.85;101623.75;5091852;27;45432;-79
2022/07/30 10:17:58;;;;;;;;;2.67;2.00;;;;;46.06;13.71;101611.44;5084395;27;45479;-79
2022/07/30 10:20:25;;;;;;;;;5.00;2.33;;;;;45.65;13.92;101617.94;5080631;27;46094;-79
2022/07/30 10:22:51;;;;;;;;;2.33;2.33;;;;;46.23;13.84;101614.78;5080157;27;45499;-78
2022/07/30 10:25:25;;;;;;;;;3.67;3.67;;;;;46.65;12.52;101610.69;5093115;27;45566;-78
2022/07/30 10:27:51;;;;;;;;;2.00;2.00;;;;;46.87;11.85;101613.13;5068108;28;45682;-79
2022/07/30 10:30:17;;;;;;;;;3.00;3.00;;;;;46.79;12.52;101610.09;5080665;27;45479;-78
2022/07/30 10:32:43;;;;;;;;;4.33;3.00;;;;;46.44;13.24;101598.66;5082077;27;45509;-79
2022/07/30 10:35:10;;;;;;;;;3.00;2.00;;;;;46.12;12.73;101608.31;5094911;27;45526;-79
2022/07/30 10:37:48;;;;;;;;;2.33;2.33;;;;;45.86;13.96;101607.50;5092169;27;45423;-79
2022/07/30 10:40:16;;;;;;;;;3.00;3.00;;;;;45.58;13.20;101606.09;5083396;27;45912;-78
2022/07/30 10:42:48;;;;;;;;;1.00;1.00;;;;;45.42;13.92;101610.00;5083117;27;45536;-79
2022/07/30 10:45:31;;;;;;;;;3.00;3.00;;;;;45.34;13.61;101605.78;5085271;27;45525;-79
2022/07/30 10:47:57;;;;;;;;;3.00;3.00;;;;;44.78;14.26;101591.56;5092753;27;45541;-78
2022/07/30 10:50:27;;;;;;;;;2.00;2.00;;;;;44.61;14.54;101603.88;5076045;27;46200;-79
2022/07/30 10:52:53;;;;;;;;;3.00;3.00;;;;;44.21;14.99;101588.47;5090187;27;45400;-79
2022/07/30 10:55:29;;;;;;;;;3.00;3.00;;;;;43.85;15.03;101584.56;5076364;27;45973;-80
2022/07/30 10:58:03;;;;;;;;;3.00;3.00;;;;;43.39;15.10;101584.19;5058199;28;45462;-79
2022/07/30 11:00:34;;;;;;;;;3.00;3.00;;;;;43.18;15.23;101583.13;5080932;27;46123;-79
2022/07/30 11:03:22;;;;;;;;;2.00;2.00;;;;;43.05;15.96;101580.72;5082590;27;45522;-78
2022/07/30 11:05:50;;;;;;;;;4.00;4.00;;;;;42.99;15.23;101574.19;5084848;27;45396;-78
2022/07/30 11:08:39;;;;;;;;;2.00;2.00;;;;;42.83;15.93;101581.63;5081718;27;45454;-78
2022/07/30 11:11:19;;;;;;;;;5.00;3.00;;;;;42.73;16.25;101578.66;5085953;27;45940;-78
2022/07/30 11:13:56;;;;;;;;;3.00;3.00;;;;;42.54;16.31;101584.59;5070105;27;45511;-78
2022/07/30 11:16:23;;;;;;;;;3.00;3.00;;;;;42.29;16.37;101576.69;5083713;27;45471;-78
2022/07/30 11:19:04;;;;;;;;;3.00;3.00;;;;;41.92;16.67;101570.78;5082828;27;45526;-78
2022/07/30 11:21:31;;;;;;;;;4.00;4.00;;;;;41.71;16.86;101573.28;5075674;27;46423;-79
2022/07/30 11:23:57;;;;;;;;;3.33;3.33;;;;;41.36;16.58;101553.91;5075953;27;45413;-79
2022/07/30 11:26:38;;;;;;;;;1.00;1.00;;;;;41.07;17.66;101567.91;5075603;28;45620;-79